Anza Borrego Desert Research Center, California Weather observations

Data are for 10 minute period ending at time listed.
 Day   Time   Solar   Ave.   Ave.  Ave.  Vector  Max.   Baro.   Total    
  of    of     Rad.   Air    Rel.  Wind   Wind   Wind  Press.  Precip.   
Year   Day            Temp.  Hum.  Speed  Dir.   Gust                    
2015   (PST)  Kw/m2    F      %     mph   deg.    mph    mb.     in.     
-------------------------------------------------------------------------
 240    0:00   0.00   90.1    25    1.5   292     2.4   980.0    0.00 
 240    0:10   0.00   89.1    25    2.2   234     3.3   980.0    0.00 
 240    0:20   0.00   89.7    25    2.2   255     3.4   979.9    0.00 
 240    0:30   0.00   88.1    27    3.5   261     4.7   980.0    0.00 
 240    0:40   0.00   88.0    27    3.8   264     5.5   979.9    0.00 
 240    0:50   0.00   87.9    27    2.5   176     5.0   979.9    0.00 
 240    1:00   0.00   88.6    27    1.0   321     2.0   979.9    0.00 
 240    1:10   0.00   89.5    26    3.2   319     5.1   980.0    0.00 
 240    1:20   0.00   88.1    27    2.7   310     4.8   979.9    0.00 
 240    1:30   0.00   87.4    28    0.8   220     2.0   979.9    0.00 
 240    1:40   0.00   86.7    28    0.2     3     1.5   980.0    0.00 
 240    1:50   0.00   87.7    27    0.9   243     2.2   980.0    0.00 
 240    2:00   0.00   87.2    27    3.2   235     4.7   980.0    0.00 
 240    2:10   0.00   86.3    28    5.4   238     6.5   980.0    0.00 
 240    2:20   0.00   86.0    29    5.2   240     6.3   980.0    0.00 
 240    2:30   0.00   85.6    29    4.0   229     5.4   980.0    0.00 
 240    2:40   0.00   87.0    29    3.9   235     5.0   979.9    0.00 
 240    2:50   0.00   86.6    29    4.5   256     5.5   979.9    0.00 
 240    3:00   0.00   86.3    29    3.3   249     5.0   979.9    0.00 
 240    3:10   0.00   86.0    30    1.6   254     3.4   979.9    0.00 
 240    3:20   0.00   86.0    30    1.9   268     2.7   979.8    0.00 
 240    3:30   0.00   85.4    30    1.4   245     2.4   979.8    0.00 
 240    3:40   0.00   86.0    29    0.8   226     1.8   979.8    0.00 
 240    3:50   0.00   84.7    30    1.6   273     2.6   979.8    0.00 
 240    4:00   0.00   84.1    31    1.6   263     2.3   979.7    0.00 
 240    4:10   0.00   83.9    31    2.1   224     3.3   979.6    0.00 
 240    4:20   0.00   83.9    31    2.8   226     3.4   979.6    0.00 
 240    4:30   0.00   83.7    32    2.4   234     4.2   979.6    0.00 
 240    4:40   0.00   84.6    31    2.4   223     3.5   979.7    0.00 
 240    4:50   0.00   85.2    31    3.4   263     4.7   979.9    0.00 
 240    5:00   0.00   84.3    32    3.1   289     4.2   980.0    0.00 
 240    5:10   0.00   84.0    32    3.0   242     5.6   980.1    0.00 
 240    5:20   0.00   84.0    32    5.7   251     6.6   980.1    0.00 
 240    5:30   0.01   85.4    31    4.2   254     6.0   980.1    0.00 
 240    5:40   0.02   86.7    30    3.9   268     4.7   980.0    0.00 
 240    5:50   0.04   88.0    29    3.7   307     5.3   980.0    0.00 
 240    6:00   0.07   90.6    27    2.7   341     4.4   980.2    0.00 
 240    6:10   0.09   90.5    26    2.8    57     5.3   980.4    0.00 
 240    6:20   0.12   91.2    26    0.8    35     2.0   980.6    0.00 
 240    6:30   0.15   93.8    24    0.5   180     1.3   980.7    0.00 
 240    6:40   0.18   94.7    23    0.6   128     2.1   980.8    0.00 
 240    6:50   0.22   95.6    22    0.2   278     1.4   980.9    0.00 
 240    7:00   0.25   95.4    23    2.5    99     5.1   981.1    0.00 
 240    7:10   0.29   95.3    22    1.8   183     3.5   981.2    0.00 
 240    7:20   0.33   96.9    22    2.8   184     4.1   981.3    0.00 
 240    7:30   0.36   97.0    24    4.2    95     6.9   981.5    0.00 
 240    7:40   0.40   96.4    24    4.3    96     6.9   981.7    0.00 
 240    7:50   0.43   97.0    22    3.0   124     6.6   981.8    0.00 
 240    8:00   0.47   97.4    22    3.5   136     6.9   981.8    0.00 
 240    8:10   0.50   98.6    22    3.9   149     8.8   981.9    0.00 
 240    8:20   0.53   97.7    22    5.4   157     7.7   981.8    0.00 
 240    8:30   0.56   98.3    22    2.5   133     5.3   981.9    0.00 
 240    8:40   0.60   99.9    21    2.0    74     5.8   981.9    0.00 
 240    8:50   0.63  100.7    21    1.7    38     4.5   981.8    0.00 
 240    9:00   0.66  100.9    21    2.8   113     5.7   981.9    0.00 
 240    9:10   0.69  101.7    21    2.8   110     6.9   981.9    0.00 
 240    9:20   0.71  101.6    21    2.5    31     5.0   981.9    0.00 
 240    9:30   0.74  101.3    23    3.8    76     6.0   981.9    0.00 
 240    9:40   0.76  101.4    23    3.5    87     7.3   981.9    0.00 
 240    9:50   0.78  102.0    22    4.8    92     9.9   981.9    0.00 
 240   10:00   0.80  102.6    22    4.0    58     7.1   981.8    0.00 
 240   10:10   0.82  103.2    22    2.6   125     8.1   981.8    0.00 
 240   10:20   0.83  103.8    21    3.9    27     9.2   981.6    0.00 
 240   10:30   0.85  103.8    22    4.2    68     8.2   981.5    0.00 
 240   10:40   0.86  104.7    21    4.5   110     9.3   981.3    0.00 
 240   10:50   0.87  104.0    21    5.6   129     8.3   981.2    0.00 
 240   11:00   0.89  104.5    21    2.8   152     7.0   981.1    0.00 
 240   11:10   0.90  105.1    21    6.0    79     9.6   980.9    0.00 
 240   11:20   0.90  105.4    20    6.2    75     9.0   980.8    0.00 
 240   11:30   0.90  106.0    20    4.5   139    11.4   980.6    0.00 
 240   11:40   0.91  106.6    20    5.6   153    11.6   980.4    0.00 
 240   11:50   0.91  106.6    20    5.5   147    12.3   980.3    0.00 
 240   12:00   0.91  106.4    20    5.2   105    11.2   980.1    0.00 
 240   12:10   0.91  106.4    20    6.4   142    14.0   980.0    0.00 
 240   12:20   0.90  107.2    20    3.8   140     8.8   980.0    0.00 
 240   12:30   0.90  107.2    20    4.0    78     8.7   979.8    0.00 
 240   12:40   0.88  108.2    19    4.7   108     9.3   979.6    0.00 
 240   12:50   0.87  108.2    19    6.0    95    13.7   979.3    0.00 
 240   13:00   0.87  108.0    19    4.0    99    14.7   979.2    0.00 
 240   13:10   0.86  108.9    18    4.1    72    12.4   979.0    0.00 
 240   13:20   0.85  108.6    18    6.7    98    14.0   978.8    0.00 
 240   13:30   0.83  108.6    18    7.7    73    14.2   978.7    0.00 
 240   13:40   0.82  108.8    18    6.4    99    14.4   978.6    0.00 
 240   13:50   0.80  109.3    17    7.1    86    12.3   978.4    0.00 
 240   14:00   0.78  108.7    18    8.5    95    15.2   978.2    0.00 
 240   14:10   0.75  108.9    17    6.5    86    12.1   978.0    0.00 
 240   14:20   0.72  109.1    17    8.5   118    13.8   977.9    0.00 
 240   14:30   0.69  109.3    17    4.8   100    10.3   977.7    0.00 
 240   14:40   0.67  108.6    17    4.1   110     8.1   977.5    0.00 
 240   14:50   0.64  110.0    17    5.8   157     9.6   977.3    0.00 
 240   15:00   0.60  110.0    17    6.6   147    13.4   977.2    0.00 
 240   15:10   0.58  109.0    17    7.5   121    12.3   977.2    0.00 
 240   15:20   0.55  109.6    17    4.9   124    12.6   977.1    0.00 
 240   15:30   0.51  109.7    17    7.9   116    12.1   977.0    0.00 
 240   15:40   0.42  109.5    17    5.1   145    11.9   977.0    0.00 
 240   15:50   0.35  108.9    17    7.8   140    13.9   977.0    0.00 
 240   16:00   0.41  109.4    17    4.8   183     9.9   977.0    0.00 
 240   16:10   0.36  110.3    17    5.9   112    13.3   977.0    0.00 
 240   16:20   0.33  109.2    17    8.1   153    12.6   977.0    0.00 
 240   16:30   0.29  109.2    17    4.2   162     9.9   977.0    0.00 
 240   16:40   0.26  109.6    17    3.4   182     7.6   976.9    0.00 
 240   16:50   0.23  109.0    17    5.1    94     7.9   977.0    0.00 
 240   17:00   0.19  108.5    17    5.9    26    10.9   977.0    0.00 
 240   17:10   0.09  107.2    16    8.4   286    14.0   976.9    0.00 
 240   17:20   0.04  105.6    17    8.7   307    12.9   977.0    0.00 
 240   17:30   0.03  105.3    17    8.5   297    14.7   977.0    0.00 
 240   17:40   0.03  104.7    17    8.6   320    18.0   977.2    0.00 
 240   17:50   0.02  104.0    17   10.7   327    17.2   977.2    0.00 
 240   18:00   0.01  103.5    17   11.8   321    17.6   977.2    0.00 
 240   18:10   0.01  102.9    17   13.4   328    20.5   977.2    0.00 
 240   18:20   0.00  102.4    17   12.8   324    18.7   977.3    0.00 
 240   18:30   0.00  102.0    17   13.0   323    19.9   977.4    0.00 
 240   18:40   0.00  101.8    17   10.4   307    16.8   977.4    0.00 
 240   18:50   0.00  101.6    18   10.4   294    17.7   977.5    0.00 
 240   19:00   0.00  101.3    18   11.6   304    20.9   977.6    0.00 
 240   19:10   0.00  101.0    18   12.2   313    25.0   977.7    0.00 
 240   19:20   0.00  100.7    18   11.8   306    23.9   977.9    0.00 
 240   19:30   0.00  100.5    18   12.7   331    25.6   978.0    0.00 
 240   19:40   0.00  100.5    18    9.1   329    23.8   978.2    0.00 
 240   19:50   0.00  100.0    18    8.8   313    22.9   978.3    0.00 
 240   20:00   0.00  100.3    18    7.3   322    14.7   978.4    0.00 
 240   20:10   0.00   99.8    18    5.8   328    10.2   978.4    0.00 
 240   20:20   0.00   99.8    19    5.2   318    10.7   978.4    0.00 
 240   20:30   0.00   99.2    19    3.8   117     5.8   978.5    0.00 
 240   20:40   0.00   98.2    19    3.1    95     5.1   978.6    0.00 
 240   20:50   0.00   96.9    20    2.5   258     4.4   978.5    0.00 
 240   21:00   0.00   96.3    20    0.8   224     3.6   978.5    0.00 
 240   21:10   0.00   95.1    21    2.4   232     3.9   978.5    0.00 
 240   21:20   0.00   93.8    22    3.6   221     5.2   978.5    0.00 
 240   21:30   0.00   94.3    21    4.5   206     5.8   978.4    0.00 
 240   21:40   0.00   94.0    22    3.9   194     5.0   978.3    0.00 
 240   21:50   0.00   92.5    22    3.9   196     5.1   978.2    0.00 
 240   22:00   0.00   92.4    22    4.2   205     5.3   978.2    0.00 
 240   22:10   0.00   92.0    23    3.4   194     5.8   978.1    0.00 
 240   22:20   0.00   93.1    22    1.3    46     3.2   978.2    0.00 
 240   22:30   0.00   92.8    22    3.3   210     5.7   978.2    0.00 
 240   22:40   0.00   93.5    22    2.5   210     4.3   978.2    0.00 
 240   22:50   0.00   93.6    22    3.2   210     5.9   978.1    0.00 
 240   23:00   0.00   93.5    22    4.5   222     7.7   978.1    0.00 

Return to Anza Borrego Desert Research Center graphs page.


Western Regional Climate Center,wrcc@dri.edu